首页
METAR-TAF:

METAR-TAF

机场 :

拉斯维加斯, 新墨西哥州, 美国

纬度: 35-39-15N, 经度: 105-08-33W, 海拔: 2096米

当前天气观测

该预报发布于24分钟前的20:53 UTC
风速22节,风向西南,有时为27节阵风
温度 13°C
湿度 9%
气压 1020 hPa
能見度: 16.1公里
天空无云

METAR: KLVS 112053Z AUTO 22022G27KT 10SM CLR 13/M19 A3013 RMK AO2 PK WND 21030/1957 SLP151 T01331194 56028

时间: 14:17 (21:17 UTC)

预报

该预报发布于3小时和38分钟前的17:39 UTC
预报有效从11日的 18点(UTC)到 12日的 18点(UTC)
风速5节,风向
能見度: 10公里
多云层高于25000英尺
从 11日的 2000点(UTC)
风速14节,风向南转西南,有时为24节阵风
能見度: 10公里
多云层高于25000英尺
从 12日的 0000点(UTC)
风速11节,风向南转西南
能見度: 10公里
散云层高于25000英尺
从 12日的 1200点(UTC)
风速11节,风向
能見度: 10公里
散云层高于25000英尺

TAF: KLVS 111739Z 1118/1218 18005KT P6SM BKN250 FM112000 21014G24KT P6SM BKN250 FM120000 21011KT P6SM SCT250 FM121200 01011KT P6SM SCT250

超过4000个机场的气象观测和天气预报(METAR&TAF报告)。

可查询的气象台以黄色和红色小点在地图上表示。

将鼠标移到小点上方,可查看气象台名称。

然后点击查看天气观测和预报。

如需切换地图:点击带黑十字的绿色按钮放大地图;点击带横线的绿色按钮缩小地图;或者点击绿色箭头查看邻近地区的地图。


METAR-TAF: